Latest Weather Observations for Maria Island

IDT60801

Issued at 5:35 pm EDT Monday 24 November 2014 (issued every 30 minutes, with the page automatically refreshed every 10 minutes)

About weather observations | Map of weather stations | Latest weather observations for TAS | Other Formats
Station Details ID: 092124 Name: MARIA ISLAND (POINT LESUEUR) Lat: -42.66 Lon: 148.02 Height: 28.0 m
Data from the previous 72 hours. | See also: Recent months at Maria Island
Date/Time
EDT
Temp
°C
App
Temp
°C
Dew
Point
Rel
Hum
%
Delta-T
°C
Wind Press
QNH
hPa
Press
MSL
hPa
Rain
since 9 am
mm
Dir
 
Spd
km/h
Gust
km/h
Spd
kts
Gust
kts
24/05:30pm 14.5 13.4 11.8 84 1.5 NNW 9 13 5 7 1001.7 1001.6 0.8
24/05:00pm 14.9 13.3 11.5 80 1.8 NW 11 15 6 8 1002.1 1002.0 0.8
24/04:30pm 15.1 12.1 10.7 75 2.3 N 17 19 9 10 1002.0 1001.9 0.8
24/04:00pm 15.5 11.7 9.8 69 3.0 N 20 26 11 14 1002.4 1002.3 0.8
24/03:30pm 15.7 11.2 10.0 69 3.0 N 24 32 13 17 1003.1 1003.0 0.8
24/03:00pm 15.0 8.7 9.8 71 2.7 NNE 33 43 18 23 1003.2 1003.1 0.8
24/02:30pm 14.8 9.6 10.2 74 2.4 N 28 33 15 18 1004.1 1004.0 0.8
24/02:00pm 14.9 11.2 10.1 73 2.5 NNE 20 28 11 15 1004.9 1004.8 0.8
24/01:30pm 15.0 10.8 9.6 70 2.8 N 22 28 12 15 1005.8 1005.7 0.8
24/01:00pm 15.0 11.7 11.0 77 2.1 N 19 24 10 13 1005.9 1005.8 0.8
24/12:30pm 14.9 10.3 9.5 70 2.8 N 24 32 13 17 1006.1 1006.0 0.8
24/12:00pm 14.9 10.7 9.7 71 2.7 N 22 28 12 15 1006.7 1006.6 0.8
24/11:30am 14.6 11.4 10.0 74 2.4 NNE 17 20 9 11 1007.6 1007.6 0.6
24/11:00am 14.4 10.7 9.4 72 2.6 N 19 22 10 12 1008.5 1008.5 0.6
24/10:30am 14.6 11.4 10.0 74 2.4 N 17 20 9 11 1008.8 1008.8 0.2
24/10:00am 15.0 11.4 10.0 72 2.6 N 19 22 10 12 1008.4 1008.4 0.2
24/09:30am 14.4 11.5 9.6 73 2.5 N 15 19 8 10 1008.5 1008.5 0.2
24/09:00am 14.0 10.9 9.0 72 2.5 N 15 20 8 11 1009.1 1009.1 2.2
24/08:30am 13.7 9.8 9.4 75 2.2 N 20 24 11 13 1009.1 1009.1 2.2
24/08:00am 13.6 11.3 10.6 82 1.6 NNW 13 17 7 9 1008.6 1008.6 2.2
24/07:30am 13.1 11.6 10.5 84 1.4 NNW 9 15 5 8 1008.7 1008.7 2.2
24/07:00am 13.4 10.1 9.5 77 2.0 N 17 19 9 10 1008.7 1008.7 2.2
24/06:30am 12.8 10.4 11.4 91 0.7 N 15 17 8 9 1009.0 1009.0 2.2
24/06:00am 12.7 11.8 11.3 91 0.7 NNE 7 9 4 5 1008.6 1008.6 2.2
24/05:30am 12.0 11.0 10.9 93 0.6 NW 7 9 4 5 1009.5 1009.5 2.2
24/05:00am 12.9 12.4 12.0 94 0.5 NNW 6 7 3 4 1009.2 1009.2 2.2
24/04:30am 12.6 11.0 11.5 93 0.6 WNW 11 17 6 9 1009.4 1009.4 2.2
24/04:00am 12.9 11.0 11.8 93 0.6 WNW 13 15 7 8 1009.5 1009.5 2.2
24/03:30am 12.9 12.2 12.0 94 0.5 WNW 7 9 4 5 1009.5 1009.5 2.2
24/03:00am 13.3 12.0 12.5 95 0.4 WNW 11 15 6 8 1009.7 1009.7 2.2
24/02:30am 13.1 11.4 12.3 95 0.4 W 13 15 7 8 1009.8 1009.8 2.2
24/02:00am 13.9 14.1 13.0 94 0.5 NNE 4 4 2 2 1010.1 1010.1 2.2
24/01:30am 14.1 15.0 12.8 92 0.7 CALM 0 4 0 2 1010.7 1010.7 2.2
24/01:00am 14.1 13.9 13.0 93 0.6 SW 6 7 3 4 1011.1 1011.1 2.2
24/12:30am 14.2 15.1 12.9 92 0.7 CALM 0 0 0 0 1011.3 1011.3 2.0
24/12:00am 14.2 13.8 12.9 92 0.7 S 7 9 4 5 1011.5 1011.5 1.4
 
Date/Time
EDT
Temp
°C
App
Temp
°C
Dew
Point
Rel
Hum
%
Delta-T
°C
Wind Press
QNH
hPa
Press
MSL
hPa
Rain
since 9 am
mm
Dir
 
Spd
km/h
Gust
km/h
Spd
kts
Gust
kts
23/11:30pm 14.3 13.2 13.0 92 0.7 SE 11 17 6 9 1011.4 1011.4 0.8
23/11:00pm 14.3 13.6 13.2 93 0.6 ESE 9 15 5 8 1011.9 1011.9 0.8
23/10:30pm 14.2 12.7 13.1 93 0.6 E 13 17 7 9 1011.9 1011.9 0.8
23/10:00pm 14.3 13.8 12.5 89 1.0 ESE 7 11 4 6 1012.0 1012.0 0.8
23/09:30pm 14.7 14.6 12.2 85 1.4 S 4 7 2 4 1012.0 1012.0 0.2
23/09:00pm 15.3 13.7 11.5 78 2.0 E 11 20 6 11 1011.5 1011.5 0.0
23/08:30pm 15.4 13.9 11.8 79 1.9 ENE 11 17 6 9 1011.4 1011.4 0.0
23/08:00pm 15.5 13.9 11.7 78 2.1 E 11 17 6 9 1011.2 1011.2 0.0
23/07:30pm 15.9 14.0 11.9 77 2.2 ENE 13 20 7 11 1010.6 1010.6 0.0
23/07:00pm 16.1 12.9 11.1 72 2.7 ENE 19 32 10 17 1010.5 1010.5 0.0
23/06:30pm 15.8 13.1 11.6 76 2.3 ENE 17 20 9 11 1010.3 1010.3 0.0
23/06:00pm 16.1 12.4 11.5 74 2.5 ENE 22 28 12 15 1010.2 1010.2 0.0
23/05:30pm 16.9 14.1 11.4 70 3.0 NE 17 20 9 11 1009.7 1009.7 0.0
23/05:00pm 16.2 12.4 11.2 72 2.7 E 22 30 12 16 1009.4 1009.4 0.0
23/04:30pm 16.4 11.6 11.6 73 2.6 ESE 28 33 15 18 1009.1 1009.1 0.0
23/04:00pm 17.0 12.3 12.1 73 2.7 ESE 28 35 15 19 1009.1 1009.1 0.0
23/03:30pm 16.9 11.8 12.0 73 2.7 ESE 30 35 16 19 1009.3 1009.3 0.0
23/03:00pm 16.3 12.0 12.1 76 2.3 ESE 26 35 14 19 1009.3 1009.3 0.0
23/02:30pm 17.0 12.0 12.1 73 2.7 ESE 30 35 16 19 1009.2 1009.2 0.0
23/02:00pm 17.2 11.9 12.5 74 2.6 ESE 32 37 17 20 1009.0 1009.0 0.0
23/01:30pm 17.5 12.4 13.0 75 2.5 ESE 32 39 17 21 1008.7 1008.7 0.0
23/01:00pm 16.9 11.9 12.2 74 2.6 ESE 30 35 16 19 1008.4 1008.4 0.0
23/12:30pm 16.9 12.1 11.8 72 2.8 ESE 28 33 15 18 1008.2 1008.2 0.0
23/12:00pm 17.3 12.6 12.0 71 2.9 E 28 35 15 19 1008.4 1008.4 0.0
23/11:30am 18.1 14.7 11.2 64 3.7 E 20 26 11 14 1008.5 1008.5 0.0
23/11:00am 17.8 14.7 12.3 70 3.1 ESE 20 28 11 15 1008.3 1008.3 0.0
23/10:30am 17.4 15.6 11.0 66 3.5 ESE 11 15 6 8 1008.2 1008.2 0.0
23/10:00am 17.4 15.4 11.4 68 3.3 ESE 13 19 7 10 1008.0 1008.0 0.0
23/09:30am 16.8 14.1 11.7 72 2.8 ESE 17 20 9 11 1007.7 1007.7 0.0
23/09:00am 16.8 14.2 11.9 73 2.7 ESE 17 22 9 12 1007.7 1007.7 0.0
23/08:30am 16.1 13.3 12.7 80 1.9 E 19 24 10 13 1007.3 1007.3 0.0
23/08:00am 16.4 16.1 11.3 72 2.8 ESE 4 9 2 5 1007.0 1007.0 0.0
23/07:30am 16.3 14.7 11.7 74 2.5 S 11 17 6 9 1006.5 1006.4 0.0
23/07:00am 16.4 13.5 11.1 71 2.9 SSE 17 24 9 13 1006.0 1005.9 0.0
23/06:30am 15.9 12.6 10.9 72 2.7 WSW 19 24 10 13 1005.4 1005.3 0.0
23/06:00am 14.6 12.6 11.4 81 1.7 SW 13 17 7 9 1004.8 1004.7 0.0
23/05:30am 15.9 14.9 10.4 70 2.9 WSW 6 11 3 6 1004.0 1003.9 0.0
23/05:00am 14.9 12.8 11.1 78 2.0 S 13 19 7 10 1003.9 1003.8 0.0
23/04:30am 14.5 12.6 11.7 83 1.5 SSW 13 17 7 9 1003.7 1003.6 0.0
23/04:00am 14.5 12.9 11.7 83 1.5 SSW 11 15 6 8 1003.3 1003.2 0.0
23/03:30am 15.0 12.9 11.0 77 2.1 WSW 13 17 7 9 1003.2 1003.1 0.0
23/03:00am 15.8 13.6 10.8 72 2.7 NW 13 17 7 9 1003.0 1002.9 0.0
23/02:30am 15.8 13.6 10.8 72 2.7 WNW 13 19 7 10 1002.9 1002.8 0.0
23/02:00am 16.4 15.2 10.3 67 3.2 N 7 11 4 6 1002.7 1002.6 0.0
23/01:30am 16.6 14.0 10.7 68 3.1 N 15 24 8 13 1002.9 1002.8 0.0
23/01:00am 16.7 14.6 11.2 70 3.0 N 13 20 7 11 1003.3 1003.2 0.0
23/12:30am 16.3 13.5 11.5 73 2.6 N 17 20 9 11 1003.3 1003.2 0.0
23/12:00am 16.5 13.8 11.6 73 2.7 N 17 20 9 11 1003.4 1003.3 0.0
 
Date/Time
EDT
Temp
°C
App
Temp
°C
Dew
Point
Rel
Hum
%
Delta-T
°C
Wind Press
QNH
hPa
Press
MSL
hPa
Rain
since 9 am
mm
Dir
 
Spd
km/h
Gust
km/h
Spd
kts
Gust
kts
22/11:30pm 16.8 11.9 11.3 70 3.0 N 28 33 15 18 1003.4 1003.3 0.0
22/11:00pm 16.3 12.3 11.7 74 2.5 N 24 33 13 18 1003.7 1003.6 0.0
22/10:30pm 16.4 12.8 11.8 74 2.5 N 22 26 12 14 1003.5 1003.4 0.0
22/10:00pm 16.6 12.9 11.5 72 2.8 N 22 26 12 14 1003.6 1003.5 0.0
22/09:30pm 16.7 13.6 11.6 72 2.8 N 19 24 10 13 1004.1 1004.0 0.0
22/09:00pm 17.0 13.7 11.5 70 3.0 N 20 24 11 13 1003.6 1003.5 0.0
22/08:30pm 17.1 13.8 11.6 70 3.0 NNW 20 26 11 14 1003.7 1003.6 0.0
22/08:00pm 18.2 13.4 11.5 65 3.7 NNW 28 32 15 17 1003.6 1003.5 0.0
22/07:30pm 18.5 14.1 11.6 64 3.8 N 26 30 14 16 1003.3 1003.2 0.0
22/07:00pm 18.8 15.1 11.6 63 4.0 N 22 26 12 14 1003.4 1003.3 0.0
22/06:30pm 19.5 15.1 11.8 61 4.3 N 26 30 14 16 1003.2 1003.1 0.0
22/06:00pm 19.6 14.4 11.6 60 4.4 N 30 37 16 20 1002.8 1002.7 0.0
22/05:30pm 21.3 14.4 11.6 54 5.4 NNW 39 46 21 25 1002.7 1002.6 0.0
22/05:00pm 21.3 15.4 11.3 53 5.6 N 33 44 18 24 1003.2 1003.1 0.0
22/04:30pm 20.1 12.8 10.2 53 5.3 N 39 44 21 24 1002.9 1002.8 0.0
22/04:00pm 20.1 13.9 9.9 52 5.5 N 33 37 18 20 1003.1 1003.0 0.0
22/03:30pm 19.9 13.8 10.3 54 5.2 N 33 43 18 23 1003.6 1003.5 0.0
22/03:00pm 20.1 12.9 10.5 54 5.2 N 39 44 21 24 1003.9 1003.8 0.0
22/02:30pm 21.0 15.8 11.6 55 5.2 N 30 33 16 18 1004.4 1004.3 0.0
22/02:00pm 19.6 14.3 11.1 58 4.7 N 30 35 16 19 1004.6 1004.5 0.0
22/01:30pm 20.3 15.8 11.5 57 4.9 N 26 32 14 17 1005.0 1004.9 0.0
22/01:00pm 18.9 13.8 10.5 58 4.5 N 28 37 15 20 1005.6 1005.5 0.0
22/12:30pm 19.6 12.9 9.5 52 5.4 N 35 41 19 22 1005.7 1005.6 0.0
22/12:00pm 19.3 12.1 7.7 47 6.0 N 35 41 19 22 1005.9 1005.8 0.0
22/11:30am 17.1 10.4 8.3 56 4.5 N 33 39 18 21 1005.9 1005.8 0.0
22/11:00am 15.7 9.6 8.4 62 3.7 N 30 35 16 19 1006.6 1006.5 0.0
22/10:30am 15.0 10.9 7.8 62 3.6 N 19 22 10 12 1007.1 1007.1 0.0
22/10:00am 14.7 9.6 5.8 55 4.3 N 22 26 12 14 1007.3 1007.3 0.0
22/09:30am 14.6 8.2 5.1 53 4.5 NNW 28 33 15 18 1007.4 1007.4 0.0
22/09:00am 14.7 9.4 5.0 52 4.6 NW 22 26 12 14 1007.7 1007.7 0.0
22/08:30am 15.0 9.5 5.8 54 4.4 NNW 24 28 13 15 1007.7 1007.7 0.0
22/08:00am 14.3 7.7 6.2 58 3.9 N 30 33 16 18 1007.6 1007.6 0.0
22/07:30am 13.7 9.2 8.7 72 2.5 NNW 22 28 12 15 1007.4 1007.4 0.0
22/07:00am 13.3 7.5 10.7 84 1.4 N 32 37 17 20 1007.2 1007.2 0.0
22/06:30am 13.1 6.7 10.8 86 1.2 N 35 39 19 21 1006.8 1006.7 0.0
22/06:00am 13.0 6.3 9.6 80 1.7 N 35 41 19 22 1006.6 1006.5 0.0
22/05:30am 12.4 6.5 9.2 81 1.6 N 30 35 16 19 1006.7 1006.6 0.0
22/05:00am 12.2 6.0 9.2 82 1.5 N 32 35 17 19 1006.7 1006.6 0.0
22/04:30am 12.2 5.5 9.6 84 1.3 N 35 39 19 21 1006.9 1006.8 0.0
22/04:00am 12.2 6.5 9.8 85 1.2 N 30 35 16 19 1007.1 1007.1 0.0
22/03:30am 12.4 6.3 9.8 84 1.3 N 32 37 17 20 1007.3 1007.3 0.0
22/03:00am 12.7 5.4 10.2 85 1.3 N 39 46 21 25 1007.1 1007.1 0.0
22/02:30am 12.6 5.5 9.4 81 1.6 N 37 43 20 23 1007.6 1007.6 0.0
22/02:00am 12.6 6.7 9.1 79 1.8 N 30 35 16 19 1008.2 1008.2 0.0
22/01:30am 12.5 7.6 8.6 77 1.9 N 24 30 13 16 1009.0 1009.0 0.0
22/01:00am 12.3 8.1 8.2 76 2.0 NNE 20 26 11 14 1009.6 1009.6 0.0
22/12:30am 12.1 7.4 7.8 75 2.1 N 22 28 12 15 1009.9 1009.9 0.0
22/12:00am 11.7 9.3 7.2 74 2.2 N 9 15 5 8 1010.5 1010.5 0.0
 
Date/Time
EDT
Temp
°C
App
Temp
°C
Dew
Point
Rel
Hum
%
Delta-T
°C
Wind Press
QNH
hPa
Press
MSL
hPa
Rain
since 9 am
mm
Dir
 
Spd
km/h
Gust
km/h
Spd
kts
Gust
kts
21/11:30pm 11.0 8.9 6.6 74 2.1 NNE 7 9 4 5 1010.6 1010.6 0.0
21/11:00pm 10.5 7.9 6.1 74 2.0 NE 9 15 5 8 1010.7 1010.7 0.0
21/10:30pm 10.7 8.1 5.9 72 2.2 E 9 13 5 7 1010.9 1010.9 0.0
21/10:00pm 11.4 8.5 6.5 72 2.3 E 11 15 6 8 1010.5 1010.5 0.0
21/09:30pm 10.9 8.0 6.3 73 2.2 ENE 11 13 6 7 1010.5 1010.5 0.0
21/09:00pm 11.2 8.3 6.3 72 2.3 E 11 15 6 8 1010.2 1010.2 0.0
21/08:30pm 11.6 7.9 6.5 71 2.4 SE 15 19 8 10 1009.5 1009.5 0.0
21/08:00pm 12.1 8.8 6.6 69 2.6 ESE 13 17 7 9 1009.2 1009.2 0.0
21/07:30pm 12.9 8.5 6.7 66 3.0 SSE 19 22 10 12 1008.3 1008.3 0.0
21/07:00pm 13.3 8.4 6.9 65 3.1 SSE 22 26 12 14 1007.8 1007.8 0.0
21/06:30pm 13.9 9.1 7.2 64 3.3 S 22 28 12 15 1007.4 1007.4 0.0
21/06:00pm 14.2 9.0 7.3 63 3.4 S 24 28 13 15 1007.2 1007.2 0.0

Other Formats:

Comma delimited format used in spreadsheet applications
http://www.bom.gov.au/fwo/IDT60801/IDT60801.95988.axf

JavaScript Object Notation format (JSON) in row-major order
http://www.bom.gov.au/fwo/IDT60801/IDT60801.95988.json